Time;durP1;ratioP1;P1;durP2;ratioP2;P2;SDS_P1;SDS_P2;PMS_P1;PMS_P2;Temp;Humidity;BMP_temperature;BMP_pressure;BME280_temperature;BME280_humidity;BME280_pressure;Samples;Min_cycle;Max_cycle;Signal;HPM_P1;HPM_P2
2023/02/23 00:01:56;;;;;;;63.25;33.08;;;;;;;12.91;60.89;101194.38;4986915;28;114849;-68
2023/02/23 00:04:24;;;;;;;66.35;33.30;;;;;;;12.91;60.91;101191.72;4985820;28;124471;-68
2023/02/23 00:06:52;;;;;;;66.63;34.25;;;;;;;12.90;60.97;101195.28;4987993;28;124932;-72
2023/02/23 00:09:23;;;;;;;66.13;34.95;;;;;;;12.91;61.05;101188.19;4972087;28;114056;-69
2023/02/23 00:11:53;;;;;;;65.47;34.38;;;;;;;12.90;61.02;101197.94;4988426;28;115304;-68
2023/02/23 00:14:26;;;;;;;68.95;34.63;;;;;;;12.89;61.00;101185.59;4987844;28;125410;-68
2023/02/23 00:16:54;;;;;;;65.35;34.13;;;;;;;12.89;60.97;101190.06;4971876;28;123564;-68
2023/02/23 00:19:23;;;;;;;64.70;32.97;;;;;;;12.89;61.12;101195.38;4988246;28;114557;-68
2023/02/23 00:21:52;;;;;;;62.35;33.47;;;;;;;12.88;61.03;101194.50;4989807;28;114164;-68
2023/02/23 00:24:25;;;;;;;64.38;33.95;;;;;;;12.86;60.93;101185.75;4972202;28;124750;-69
2023/02/23 00:26:53;;;;;;;65.28;34.80;;;;;;;12.86;61.23;101191.06;4985175;28;123972;-68
2023/02/23 00:29:22;;;;;;;64.57;33.60;;;;;;;12.86;61.02;101188.41;4987476;28;114592;-68
2023/02/23 00:31:50;;;;;;;61.13;33.13;;;;;;;12.85;60.99;101189.34;4972378;28;113588;-69
2023/02/23 00:34:22;;;;;;;68.90;34.28;;;;;;;12.85;61.08;101184.03;4971362;28;123038;-69
2023/02/23 00:36:54;;;;;;;68.43;33.72;;;;;;;12.85;61.13;101192.03;4988999;28;124449;-69
2023/02/23 00:39:27;;;;;;;63.42;34.33;;;;;;;12.85;60.94;101184.03;4985882;28;114329;-69
2023/02/23 00:41:56;;;;;;;65.10;34.22;;;;;;;12.84;61.22;101190.28;4987467;28;114325;-69
2023/02/23 00:44:23;;;;;;;65.25;35.53;;;;;;;12.83;61.05;101188.56;4970958;28;123654;-69
2023/02/23 00:46:51;;;;;;;70.10;35.08;;;;;;;12.81;61.21;101183.34;4971173;28;123579;-68
2023/02/23 00:49:20;;;;;;;70.80;36.03;;;;;;;12.80;61.14;101186.06;4971705;28;113361;-68
2023/02/23 00:51:48;;;;;;;69.70;36.50;;;;;;;12.80;61.22;101180.75;4986279;28;113834;-68
2023/02/23 00:54:16;;;;;;;73.22;36.65;;;;;;;12.76;61.27;101180.03;4987747;28;124358;-70
2023/02/23 00:56:44;;;;;;;76.57;36.20;;;;;;;12.76;61.22;101179.19;4986897;28;124094;-69
2023/02/23 00:59:12;;;;;;;79.07;37.33;;;;;;;12.76;61.42;101189.81;4988641;28;115304;-69
2023/02/23 01:01:41;;;;;;;74.25;37.72;;;;;;;12.76;61.26;101189.81;4988187;28;115080;-68
2023/02/23 01:04:10;;;;;;;80.57;37.70;;;;;;;12.73;61.25;101189.94;4987461;28;125299;-68
2023/02/23 01:06:40;;;;;;;79.60;39.40;;;;;;;12.72;61.08;101188.25;4986530;28;124724;-69
2023/02/23 01:09:10;;;;;;;85.38;40.10;;;;;;;12.69;61.26;101193.69;4987053;28;114693;-68
2023/02/23 01:11:40;;;;;;;84.57;39.83;;;;;;;12.68;61.17;101183.97;4970349;28;113275;-68
2023/02/23 01:14:09;;;;;;;89.65;40.03;;;;;;;12.65;60.99;101183.19;4984533;28;123990;-69
2023/02/23 01:16:37;;;;;;;84.65;39.25;;;;;;;12.63;61.13;101185.06;4970557;28;123045;-68
2023/02/23 01:19:06;;;;;;;83.90;37.38;;;;;;;12.64;61.35;101180.63;4969046;28;114410;-68
2023/02/23 01:21:36;;;;;;;85.32;38.70;;;;;;;12.62;61.25;101183.38;4971568;28;113315;-69
2023/02/23 01:24:05;;;;;;;86.43;40.05;;;;;;;12.61;61.23;101175.47;4986916;28;123773;-69
2023/02/23 01:26:37;;;;;;;92.47;40.22;;;;;;;12.58;61.20;101181.78;4970674;28;123358;-69
2023/02/23 01:29:13;;;;;;;84.85;39.00;;;;;;;12.55;61.31;101181.94;4986339;28;114591;-69
2023/02/23 01:31:49;;;;;;;84.35;40.50;;;;;;;12.54;61.34;101196.13;4969845;28;114331;-69
2023/02/23 01:34:20;;;;;;;84.40;38.35;;;;;;;12.51;61.22;101191.00;4967736;28;124320;-69
2023/02/23 01:36:48;;;;;;;85.15;38.08;;;;;;;12.48;61.22;101190.28;4969196;28;122999;-69
2023/02/23 01:39:18;;;;;;;84.18;38.45;;;;;;;12.44;61.37;101184.25;4990363;28;114289;-69
2023/02/23 01:41:45;;;;;;;82.05;37.83;;;;;;;12.43;61.31;101193.13;4974473;28;113155;-68
2023/02/23 01:44:14;;;;;;;77.75;36.95;;;;;;;12.40;61.19;101193.28;4974000;28;123311;-69
2023/02/23 01:46:46;;;;;;;78.85;36.92;;;;;;;12.37;61.41;101188.97;4990440;28;124333;-69
2023/02/23 01:49:22;;;;;;;77.80;38.05;;;;;;;12.35;61.22;101184.66;4992062;28;115425;-69
2023/02/23 01:52:11;;;;;;;82.55;38.25;;;;;;;12.33;61.29;101191.84;4990416;28;115347;-68
2023/02/23 01:54:43;;;;;;;79.25;38.13;;;;;;;12.32;61.41;101190.13;4989939;28;124828;-69
2023/02/23 01:57:13;;;;;;;78.00;37.55;;;;;;;12.29;61.28;101191.13;4973966;28;122284;-69
2023/02/23 01:59:43;;;;;;;80.15;37.28;;;;;;;12.26;61.45;101197.47;4973851;28;113491;-69
2023/02/23 02:02:12;;;;;;;75.55;35.97;;;;;;;12.26;61.34;101192.16;4990321;28;114163;-68
2023/02/23 02:04:44;;;;;;;80.97;37.83;;;;;;;12.24;61.46;101199.31;4992591;28;124588;-69
2023/02/23 02:07:17;;;;;;;75.68;36.55;;;;;;;12.23;61.35;101199.38;4972315;28;123062;-69
2023/02/23 02:12:51;;;;;;;83.45;37.03;;;;;;;12.19;61.32;101206.63;4972937;28;113287;-69
2023/02/23 02:15:19;;;;;;;77.13;35.20;;;;;;;12.17;61.35;101207.66;4987826;28;124078;-69
2023/02/23 02:18:10;;;;;;;77.32;36.95;;;;;;;12.15;61.40;101207.72;4989168;28;123795;-69
2023/02/23 02:20:41;;;;;;;77.18;37.45;;;;;;;12.13;61.47;101206.91;4991445;28;114488;-69
2023/02/23 02:23:30;;;;;;;76.63;35.67;;;;;;;12.12;61.74;101210.50;4974301;28;113135;-69
2023/02/23 02:26:08;;;;;;;73.55;34.85;;;;;;;12.12;61.69;101205.19;4972287;28;124127;-69
2023/02/23 02:28:45;;;;;;;75.28;35.80;;;;;;;12.12;61.57;101207.84;4958060;28;123002;-68
2023/02/23 02:32:09;;;;;;;80.82;35.90;;;;;;;12.12;61.53;101204.34;4987131;28;114497;-69
2023/02/23 02:34:48;;;;;;;77.60;35.63;;;;;;;12.10;61.75;101201.75;4931855;28;114334;-69
2023/02/23 02:37:47;;;;;;;81.25;36.33;;;;;;;12.10;61.60;101201.75;4965843;28;123003;-69
2023/02/23 02:40:21;;;;;;;73.65;36.58;;;;;;;12.09;61.60;101200.00;4973691;28;123467;-69
2023/02/23 02:43:10;;;;;;;76.07;36.45;;;;;;;12.06;61.50;101201.00;4988925;28;115408;-69
2023/02/23 02:45:52;;;;;;;76.50;35.00;;;;;;;12.05;61.67;101198.44;4973414;28;113838;-69
2023/02/23 02:48:30;;;;;;;79.00;36.05;;;;;;;12.03;61.70;101194.97;4971990;28;123909;-69
2023/02/23 02:51:08;;;;;;;74.93;35.70;;;;;;;12.03;61.77;101200.28;4988248;28;124133;-72
2023/02/23 02:53:44;;;;;;;78.38;35.28;;;;;;;12.05;61.84;101203.72;4971831;28;113290;-69
2023/02/23 02:56:18;;;;;;;78.43;36.53;;;;;;;12.06;61.94;101200.16;4986512;28;113960;-70
2023/02/23 02:58:48;;;;;;;79.50;35.57;;;;;;;12.08;61.76;101206.25;4972832;28;123753;-69
2023/02/23 04:19:52;;;;;;;80.95;37.28;;;;;;;11.76;62.63;101224.44;4990242;28;124395;-69
2023/02/23 04:22:20;;;;;;;81.28;36.40;;;;;;;11.79;62.36;101234.94;4969100;28;122921;-71
2023/02/23 04:24:49;;;;;;;82.70;36.78;;;;;;;11.80;62.52;101238.44;4990531;28;113856;-69
2023/02/23 04:27:17;;;;;;;79.55;36.63;;;;;;;11.82;62.51;101240.09;4988875;28;114219;-69
2023/02/23 04:29:45;;;;;;;81.85;36.90;;;;;;;11.82;62.51;101234.78;4986559;28;124329;-70
2023/02/23 04:32:16;;;;;;;81.80;36.67;;;;;;;11.82;62.40;101234.78;4984909;28;124811;-69
2023/02/23 04:34:44;;;;;;;79.05;36.40;;;;;;;11.84;62.45;101242.69;4986032;28;115856;-69
2023/02/23 04:37:12;;;;;;;83.78;36.17;;;;;;;11.84;62.51;101243.53;4985383;28;114609;-69
2023/02/23 04:39:41;;;;;;;83.05;36.65;;;;;;;11.83;62.40;101239.19;4988785;28;124381;-69
2023/02/23 04:42:09;;;;;;;86.45;36.70;;;;;;;11.82;62.39;101240.09;4969102;28;122705;-69
2023/02/23 04:44:38;;;;;;;79.35;35.90;;;;;;;11.81;62.67;101240.16;4987168;28;114398;-69
2023/02/23 04:47:05;;;;;;;80.68;37.08;;;;;;;11.81;62.47;101243.69;4986273;28;113628;-70
2023/02/23 04:49:32;;;;;;;79.07;36.30;;;;;;;11.82;62.63;101245.41;4984883;28;124771;-69
2023/02/23 04:51:59;;;;;;;82.78;36.72;;;;;;;11.82;62.54;101248.06;4971746;28;124231;-69
2023/02/23 04:54:27;;;;;;;83.90;36.58;;;;;;;11.81;62.64;101249.00;4989470;28;114956;-69
2023/02/23 04:56:54;;;;;;;82.68;37.30;;;;;;;11.80;62.69;101244.63;4989066;28;114496;-70
2023/02/23 04:59:22;;;;;;;82.57;37.38;;;;;;;11.80;62.73;101252.56;4967800;28;123242;-69
2023/02/23 05:01:49;;;;;;;76.18;36.65;;;;;;;11.80;62.71;101251.72;4971815;28;122832;-69
2023/02/23 05:04:16;;;;;;;82.22;37.28;;;;;;;11.78;62.64;101248.28;4987392;28;114905;-69
2023/02/23 05:06:44;;;;;;;78.85;35.70;;;;;;;11.76;62.71;101251.00;4987266;28;114358;-69
2023/02/23 05:09:11;;;;;;;81.78;36.42;;;;;;;11.75;62.77;101249.25;4984418;28;123942;-70
2023/02/23 05:11:38;;;;;;;79.57;35.95;;;;;;;11.74;62.79;101258.16;4989483;28;124453;-73
2023/02/23 05:14:05;;;;;;;84.30;37.58;;;;;;;11.75;63.00;101257.22;4987639;28;114704;-69
2023/02/23 05:16:32;;;;;;;81.90;36.22;;;;;;;11.73;62.71;101255.56;4975371;28;112920;-69
2023/02/23 05:19:00;;;;;;;79.80;36.70;;;;;;;11.71;62.73;101258.28;4989032;28;123953;-70
2023/02/23 05:21:27;;;;;;;79.80;35.95;;;;;;;11.68;62.43;101253.97;4991655;28;123867;-69
2023/02/23 05:23:56;;;;;;;81.80;36.05;;;;;;;11.66;62.83;101254.97;4992098;28;115182;-69
2023/02/23 05:26:23;;;;;;;76.53;35.75;;;;;;;11.64;62.81;101262.13;4992141;28;114891;-69
2023/02/23 05:28:50;;;;;;;76.78;35.15;;;;;;;11.65;63.05;101261.19;4974618;28;124753;-69
2023/02/23 05:31:17;;;;;;;83.13;35.65;;;;;;;11.64;62.92;101267.41;4990385;28;123965;-69
2023/02/23 05:33:45;;;;;;;74.82;36.00;;;;;;;11.63;63.02;101268.38;4989611;28;114249;-69
2023/02/23 05:36:15;;;;;;;76.63;35.53;;;;;;;11.63;63.10;101268.38;4990008;28;114050;-69
2023/02/23 05:38:44;;;;;;;80.18;35.13;;;;;;;11.63;63.14;101271.03;4970491;28;124091;-69
2023/02/23 05:41:17;;;;;;;75.50;34.58;;;;;;;11.63;62.95;101265.72;4972612;28;123265;-69
2023/02/23 05:43:45;;;;;;;73.60;34.08;;;;;;;11.64;62.96;101272.72;4989293;28;113412;-69
2023/02/23 05:46:20;;;;;;;78.53;33.75;;;;;;;11.64;63.03;101267.41;4986836;28;114546;-69
2023/02/23 05:48:47;;;;;;;77.07;33.57;;;;;;;11.64;63.03;101267.41;4991702;28;124309;-69
2023/02/23 05:51:16;;;;;;;70.40;34.88;;;;;;;11.63;63.02;101265.72;4987164;28;124425;-70
2023/02/23 05:53:45;;;;;;;72.43;33.83;;;;;;;11.63;63.07;101271.03;4984819;28;114378;-69
2023/02/23 05:56:19;;;;;;;70.63;32.80;;;;;;;11.63;63.18;101268.38;4988512;28;114185;-69
2023/02/23 05:58:48;;;;;;;76.38;33.55;;;;;;;11.64;63.10;101267.41;4989424;28;123859;-69
2023/02/23 06:01:17;;;;;;;74.20;32.72;;;;;;;11.64;63.09;101272.72;4989307;28;123904;-69
2023/02/23 06:03:45;;;;;;;77.05;33.97;;;;;;;11.65;62.98;101269.16;4974718;28;114084;-70
2023/02/23 06:06:13;;;;;;;69.78;33.00;;;;;;;11.65;62.90;101269.16;4989212;28;113948;-70
2023/02/23 06:08:40;;;;;;;70.22;32.10;;;;;;;11.67;63.14;101280.56;4973888;28;123139;-70
2023/02/23 06:11:08;;;;;;;70.35;33.15;;;;;;;11.67;63.20;101277.91;4986274;28;124137;-70
2023/02/23 06:13:35;;;;;;;73.07;33.42;;;;;;;11.68;62.89;101277.00;4973696;28;114173;-70
2023/02/23 06:16:03;;;;;;;70.95;33.17;;;;;;;11.71;63.19;101282.16;4988869;28;115306;-69
2023/02/23 06:18:31;;;;;;;73.13;33.38;;;;;;;11.72;62.91;101283.03;4970741;28;124830;-69
2023/02/23 06:20:59;;;;;;;74.32;33.30;;;;;;;11.71;63.03;101282.16;4989434;28;124478;-70
2023/02/23 06:23:28;;;;;;;75.72;32.83;;;;;;;11.71;63.03;101292.78;4988431;28;114375;-70
2023/02/23 06:25:57;;;;;;;75.32;33.63;;;;;;;11.72;62.90;101291.84;4970038;28;113333;-69
2023/02/23 06:28:25;;;;;;;76.10;33.88;;;;;;;11.72;63.11;101294.50;4988997;28;124589;-70
2023/02/23 06:30:53;;;;;;;76.40;33.05;;;;;;;11.73;63.33;101296.22;4989268;28;123985;-70
2023/02/23 06:33:22;;;;;;;67.90;31.13;;;;;;;11.72;62.76;101297.16;4973719;28;114037;-69
2023/02/23 06:35:49;;;;;;;70.55;33.25;;;;;;;11.72;63.00;101297.16;4973626;28;113415;-69
2023/02/23 06:38:16;;;;;;;71.13;33.05;;;;;;;11.72;62.85;101302.47;4972656;28;123157;-70
2023/02/23 06:40:44;;;;;;;71.35;32.78;;;;;;;11.72;62.84;101313.09;4989894;28;123944;-69
2023/02/23 06:43:11;;;;;;;70.63;32.92;;;;;;;11.71;62.84;101314.00;4991189;28;114064;-68
2023/02/23 06:45:38;;;;;;;71.68;32.17;;;;;;;11.72;62.91;101313.09;4989884;28;114521;-68
2023/02/23 06:48:05;;;;;;;72.47;33.45;;;;;;;11.72;62.94;101317.53;4988241;28;124990;-68
2023/02/23 06:50:33;;;;;;;71.25;33.13;;;;;;;11.70;62.89;101312.28;4984802;28;124255;-68
2023/02/23 06:53:00;;;;;;;74.05;33.55;;;;;;;11.69;62.89;101323.81;4990282;28;114318;-68
2023/02/23 06:55:27;;;;;;;73.53;33.80;;;;;;;11.68;63.17;101317.66;4971396;28;113971;-68
2023/02/23 06:57:55;;;;;;;76.25;33.50;;;;;;;11.69;63.06;101323.81;4955527;28;123258;-68
2023/02/23 07:00:22;;;;;;;73.55;32.15;;;;;;;11.69;63.12;101326.47;4972016;28;122765;-68
2023/02/23 07:02:51;;;;;;;73.82;33.25;;;;;;;11.68;63.13;101328.28;4990803;28;114280;-68
2023/02/23 07:05:18;;;;;;;73.63;33.10;;;;;;;11.68;63.18;101332.72;4987155;28;115093;-69
2023/02/23 07:07:45;;;;;;;70.65;32.35;;;;;;;11.68;63.26;101338.03;4972173;28;124937;-69
2023/02/23 07:10:17;;;;;;;67.75;31.63;;;;;;;11.67;63.12;101336.28;4989244;28;123004;-68
2023/02/23 07:12:45;;;;;;;74.63;32.67;;;;;;;11.67;63.24;101337.13;4992005;28;114305;-68
2023/02/23 07:15:16;;;;;;;67.10;30.52;;;;;;;11.66;63.05;101339.88;4989320;28;113706;-68
2023/02/23 07:17:47;;;;;;;71.07;31.85;;;;;;;11.64;63.18;101341.72;4989907;28;124503;-68
2023/02/23 07:20:15;;;;;;;70.22;31.50;;;;;;;11.64;63.29;101352.31;4986507;28;123931;-68
2023/02/23 07:22:43;;;;;;;72.38;31.75;;;;;;;11.64;63.24;101352.31;4992181;28;114090;-68
2023/02/23 07:25:11;;;;;;;71.65;31.83;;;;;;;11.63;63.30;101350.63;4990500;28;114509;-68
2023/02/23 07:27:38;;;;;;;71.57;30.88;;;;;;;11.62;63.34;101351.53;4988236;28;124875;-69
2023/02/23 07:30:08;;;;;;;69.15;31.90;;;;;;;11.62;63.41;101354.19;4974168;28;123439;-68
2023/02/23 07:32:35;;;;;;;69.82;32.33;;;;;;;11.61;63.20;101360.44;4973690;28;113180;-68
2023/02/23 07:35:05;;;;;;;65.43;31.40;;;;;;;11.59;63.38;101359.63;4989932;28;114180;-68
2023/02/23 07:37:32;;;;;;;68.82;30.98;;;;;;;11.58;63.37;101368.50;4987952;28;124558;-68
2023/02/23 07:39:59;;;;;;;68.35;30.88;;;;;;;11.56;63.37;101370.34;4986415;28;124213;-68
2023/02/23 07:42:28;;;;;;;69.88;30.85;;;;;;;11.56;63.62;101375.66;4991031;28;114284;-68
2023/02/23 07:44:56;;;;;;;66.20;30.85;;;;;;;11.54;63.47;101369.56;4973200;28;112875;-69
2023/02/23 07:47:29;;;;;;;67.80;31.25;;;;;;;11.53;63.50;101373.13;4988059;28;125489;-68
2023/02/23 07:49:58;;;;;;;69.72;30.85;;;;;;;11.54;63.41;101372.22;4970904;28;124000;-68
2023/02/23 07:52:25;;;;;;;68.28;31.23;;;;;;;11.53;63.57;101381.09;4989419;28;115470;-69
2023/02/23 07:54:53;;;;;;;68.43;30.25;;;;;;;11.53;63.62;101392.56;4988859;28;114911;-68
2023/02/23 07:57:21;;;;;;;71.82;31.77;;;;;;;11.54;63.64;101393.44;4986695;28;124078;-69
2023/02/23 07:59:51;;;;;;;66.45;31.33;;;;;;;11.54;63.72;101393.44;4956175;28;122904;-68
2023/02/23 08:02:18;;;;;;;72.18;31.17;;;;;;;11.55;63.32;101395.19;4989525;28;114217;-69
2023/02/23 08:04:46;;;;;;;69.10;30.50;;;;;;;11.55;63.68;101389.88;4972856;28;114563;-68
2023/02/23 08:07:15;;;;;;;74.93;32.15;;;;;;;11.55;63.57;101395.19;4987337;28;124454;-68
2023/02/23 08:09:42;;;;;;;70.47;31.30;;;;;;;11.54;63.69;101394.28;4987349;28;123645;-68
2023/02/23 08:12:09;;;;;;;74.47;32.40;;;;;;;11.55;63.85;101395.19;4970245;28;113516;-67
2023/02/23 08:14:37;;;;;;;68.78;30.55;;;;;;;11.56;63.74;101403.03;4988352;28;113878;-68
2023/02/23 08:17:04;;;;;;;68.28;31.77;;;;;;;11.58;63.76;101410.94;4987535;28;124835;-68
2023/02/23 08:19:31;;;;;;;73.43;31.08;;;;;;;11.60;63.82;101415.28;4967464;28;124080;-67
2023/02/23 08:21:59;;;;;;;73.72;31.52;;;;;;;11.61;63.81;101416.16;4967759;28;113184;-68
2023/02/23 08:24:28;;;;;;;74.30;32.30;;;;;;;11.63;63.90;101415.16;4986833;28;114287;-68
2023/02/23 08:26:57;;;;;;;68.88;31.73;;;;;;;11.63;63.61;101414.28;4986657;28;124106;-68
2023/02/23 08:29:24;;;;;;;71.38;31.42;;;;;;;11.63;63.87;101425.75;4987795;28;123890;-68
2023/02/23 08:31:51;;;;;;;67.90;30.38;;;;;;;11.65;63.95;101423.06;4987952;28;114576;-68
2023/02/23 08:34:22;;;;;;;67.38;30.95;;;;;;;11.66;64.02;101425.66;4987722;28;113874;-68
2023/02/23 08:36:49;;;;;;;67.80;31.48;;;;;;;11.67;63.92;101427.34;4983535;28;123924;-68
2023/02/23 08:39:16;;;;;;;71.28;30.80;;;;;;;11.69;63.99;101430.81;4971540;28;122855;-68
2023/02/23 08:41:45;;;;;;;57.55;28.35;;;;;;;11.70;64.02;101434.34;4988391;28;115013;-68
2023/02/23 08:44:12;;;;;;;65.45;29.40;;;;;;;11.72;64.01;101435.16;4974508;28;114239;-68
2023/02/23 08:46:39;;;;;;;65.32;29.67;;;;;;;11.75;63.96;101440.31;4972032;28;122790;-68
2023/02/23 08:49:09;;;;;;;62.80;29.27;;;;;;;11.77;63.85;101438.50;4970760;28;124860;-68
2023/02/23 08:51:37;;;;;;;59.58;28.23;;;;;;;11.79;63.93;101439.28;4966444;28;113403;-68
2023/02/23 08:54:08;;;;;;;60.17;28.25;;;;;;;11.80;63.96;101438.34;4994942;28;114415;-68
2023/02/23 08:56:37;;;;;;;54.40;26.88;;;;;;;11.81;63.92;101439.19;4967734;28;123886;-68
2023/02/23 08:59:05;;;;;;;58.95;28.23;;;;;;;11.81;63.76;101434.78;4994426;28;124015;-68
2023/02/23 09:01:32;;;;;;;61.85;27.70;;;;;;;11.83;64.02;101443.53;4992139;28;114295;-68
2023/02/23 09:03:59;;;;;;;62.17;28.17;;;;;;;11.85;63.87;101447.00;4992235;28;114414;-68
2023/02/23 09:06:27;;;;;;;60.85;27.85;;;;;;;11.88;63.91;101441.56;4988482;28;124503;-68
2023/02/23 09:08:55;;;;;;;59.17;27.00;;;;;;;11.91;63.95;101439.75;4989419;28;123954;-68
2023/02/23 09:11:23;;;;;;;59.53;26.92;;;;;;;11.93;64.22;101448.50;4989345;28;114789;-68
2023/02/23 09:13:50;;;;;;;59.75;28.83;;;;;;;11.96;63.89;101448.38;4988539;28;113769;-68
2023/02/23 09:16:17;;;;;;;61.28;28.83;;;;;;;11.98;63.97;101447.41;4984268;28;124118;-68
2023/02/23 09:18:45;;;;;;;63.25;28.00;;;;;;;12.00;63.95;101452.66;4958495;28;123450;-68
2023/02/23 09:21:21;;;;;;;63.17;28.85;;;;;;;12.02;64.02;101458.75;4987850;28;114049;-68
2023/02/23 09:23:50;;;;;;;49.92;19.02;;;;;;;12.02;63.99;101464.06;4991448;28;114242;-67
2023/02/23 09:26:18;;;;;;;53.75;20.17;;;;;;;12.04;63.91;101467.50;4975005;28;123409;-68
2023/02/23 09:28:46;;;;;;;49.40;19.25;;;;;;;12.03;63.86;101465.78;4971593;28;124192;-67
2023/02/23 09:31:18;;;;;;;49.30;19.35;;;;;;;12.04;63.89;101472.81;4975649;28;114793;-68
2023/02/23 09:33:46;;;;;;;48.47;19.38;;;;;;;12.06;63.83;101481.59;4971101;28;114918;-67
2023/02/23 09:36:22;;;;;;;50.08;19.20;;;;;;;12.06;63.90;101482.44;4975166;28;123348;-67
2023/02/23 09:38:54;;;;;;;45.65;19.25;;;;;;;12.09;64.02;101484.09;4989957;28;123807;-68
2023/02/23 09:41:24;;;;;;;49.13;19.52;;;;;;;12.11;63.83;101484.94;4991558;28;114388;-68
2023/02/23 09:44:06;;;;;;;49.08;18.30;;;;;;;12.12;63.77;101473.38;4991615;28;115097;-67
2023/02/23 09:46:52;;;;;;;46.75;18.25;;;;;;;12.16;63.81;101487.38;4989460;28;124067;-68
2023/02/23 09:49:23;;;;;;;48.72;18.95;;;;;;;12.16;63.75;101482.06;4988985;28;124666;-67
2023/02/23 09:51:57;;;;;;;48.72;19.13;;;;;;;12.18;63.86;101481.06;4971339;28;113608;-67
2023/02/23 09:54:29;;;;;;;48.67;19.45;;;;;;;12.20;63.71;101488.97;4959443;28;112978;-68
2023/02/23 09:56:57;;;;;;;45.40;18.65;;;;;;;12.21;63.77;101485.41;4989589;28;124472;-67
2023/02/23 09:59:24;;;;;;;48.28;19.35;;;;;;;12.23;63.95;101489.72;4986602;28;124355;-67
2023/02/23 10:02:08;;;;;;;45.40;17.92;;;;;;;12.26;63.78;101491.38;4990873;28;114560;-70
2023/02/23 10:04:46;;;;;;;44.92;18.50;;;;;;;12.25;63.58;101490.50;4983638;28;114363;-67
2023/02/23 10:07:21;;;;;;;40.35;16.63;;;;;;;12.26;63.82;101494.91;4986887;28;124458;-67
2023/02/23 10:10:16;;;;;;;47.00;19.08;;;;;;;12.29;63.73;101495.72;4991316;28;123636;-66
2023/02/23 10:13:16;;;;;;;44.93;17.80;;;;;;;12.29;63.61;101498.38;4987480;28;114544;-67
2023/02/23 10:15:50;;;;;;;46.75;17.60;;;;;;;12.27;63.55;101496.63;4970642;28;113063;-66
2023/02/23 10:18:42;;;;;;;44.75;18.40;;;;;;;12.26;63.57;101492.25;4988909;28;124035;-67
2023/02/23 10:21:20;;;;;;;45.17;17.57;;;;;;;12.29;63.59;101498.38;4988754;28;124298;-67
2023/02/23 10:23:57;;;;;;;47.43;19.10;;;;;;;12.30;63.64;101494.75;4988945;28;115476;-67
2023/02/23 10:26:30;;;;;;;46.10;18.40;;;;;;;12.32;63.52;101493.78;4989477;28;114900;-67
2023/02/23 10:28:58;;;;;;;48.13;19.52;;;;;;;12.35;63.55;101492.78;4986581;28;124122;-68
2023/02/23 10:31:40;;;;;;;45.35;19.35;;;;;;;12.36;63.48;101494.53;4988900;28;124239;-67
2023/02/23 10:34:15;;;;;;;44.17;18.75;;;;;;;12.40;63.58;101490.81;4978027;28;114129;-67
2023/02/23 10:36:47;;;;;;;46.95;18.67;;;;;;;12.44;63.60;101492.41;4968607;28;114455;-67
2023/02/23 10:39:15;;;;;;;42.17;19.33;;;;;;;12.48;63.61;101504.63;4988587;28;123980;-67
2023/02/23 10:41:43;;;;;;;51.45;20.58;;;;;;;12.52;63.65;101506.22;4970542;28;123598;-67
2023/02/23 10:44:18;;;;;;;50.55;19.73;;;;;;;12.58;63.57;101500.66;4988648;28;114182;-67
2023/02/23 10:46:52;;;;;;;52.20;20.77;;;;;;;12.62;63.64;101512.88;4955479;28;113083;-67
2023/02/23 10:49:31;;;;;;;50.67;19.15;;;;;;;12.66;63.62;101508.31;4990375;28;124102;-67
2023/02/23 10:52:01;;;;;;;49.85;20.42;;;;;;;12.72;63.52;101509.81;4985843;28;124386;-67
2023/02/23 10:54:43;;;;;;;50.83;19.70;;;;;;;12.75;63.41;101512.34;4989382;28;114141;-67
2023/02/23 10:57:23;;;;;;;50.15;20.10;;;;;;;12.76;63.22;101514.94;4991119;28;114673;-67
2023/02/23 11:00:06;;;;;;;51.55;20.25;;;;;;;12.76;63.16;101516.72;4981663;28;124091;-67
2023/02/23 11:02:37;;;;;;;49.38;19.98;;;;;;;12.76;63.17;101519.38;4973033;28;123853;-67
2023/02/23 11:05:27;;;;;;;46.80;20.08;;;;;;;12.76;63.02;101519.38;4987498;28;114145;-67
2023/02/23 11:08:15;;;;;;;59.00;29.17;;;;;;;12.78;63.07;101522.84;4989310;28;114597;-67
2023/02/23 11:10:54;;;;;;;60.65;29.35;;;;;;;12.76;63.21;101520.25;4964820;28;123489;-67
2023/02/23 11:13:25;;;;;;;60.60;29.50;;;;;;;12.79;63.18;101524.56;4971065;28;124902;-67
2023/02/23 11:16:24;;;;;;;60.35;28.73;;;;;;;12.80;63.07;101521.84;4970303;28;116223;-67
2023/02/23 11:18:55;;;;;;;62.45;29.13;;;;;;;12.84;63.25;101517.25;4991164;28;115068;-67
2023/02/23 11:21:37;;;;;;;59.13;27.20;;;;;;;12.88;63.19;101524.16;4982417;28;124100;-67
2023/02/23 11:24:19;;;;;;;58.25;26.50;;;;;;;12.91;63.00;101513.41;4982457;28;124680;-66
2023/02/23 11:26:49;;;;;;;55.97;26.65;;;;;;;12.93;62.92;101511.53;4981704;28;113147;-68
2023/02/23 11:29:45;;;;;;;59.17;26.75;;;;;;;12.93;62.83;101516.84;4991997;28;114158;-67
2023/02/23 11:32:26;;;;;;;59.20;25.73;;;;;;;12.96;62.86;101505.19;4978367;28;124021;-67
2023/02/23 11:35:19;;;;;;;55.53;25.05;;;;;;;12.98;62.96;101509.53;4987913;28;123649;-68
2023/02/23 11:37:48;;;;;;;56.15;26.05;;;;;;;13.01;62.81;101497.91;4983660;28;114496;-69
2023/02/23 11:40:33;;;;;;;52.25;24.58;;;;;;;13.02;62.83;101495.16;4987356;28;115012;-69
2023/02/23 11:43:03;;;;;;;53.85;24.27;;;;;;;13.04;62.68;101498.63;4983142;28;123866;-69
2023/02/23 11:45:37;;;;;;;49.70;22.83;;;;;;;13.05;62.59;101492.38;4970057;28;122744;-69
2023/02/23 11:48:05;;;;;;;47.72;22.73;;;;;;;13.07;62.52;101502.06;4988557;28;114343;-68
2023/02/23 11:50:35;;;;;;;50.70;23.90;;;;;;;13.08;62.45;101493.19;4988618;28;113880;-68
2023/02/23 11:53:11;;;;;;;54.33;24.55;;;;;;;13.10;62.41;101496.63;4991202;28;124042;-69
2023/02/23 11:55:45;;;;;;;50.72;23.98;;;;;;;13.13;62.41;101497.34;4973070;28;122942;-69
2023/02/23 11:58:23;;;;;;;51.95;24.95;;;;;;;13.14;62.30;101492.91;4971426;28;114601;-69
2023/02/23 12:01:15;;;;;;;53.63;24.92;;;;;;;13.16;62.31;101496.34;4988065;28;114463;-68
2023/02/23 12:03:54;;;;;;;50.83;24.27;;;;;;;13.17;62.29;101504.25;4991137;28;124372;-67
2023/02/23 12:06:35;;;;;;;44.03;21.90;;;;;;;13.16;62.11;101506.97;4972778;28;124188;-68
2023/02/23 12:09:19;;;;;;;52.08;24.08;;;;;;;13.15;62.19;101505.28;4985874;28;115506;-67
2023/02/23 12:11:58;;;;;;;49.33;24.25;;;;;;;13.15;62.10;101499.94;4988900;28;115595;-68
2023/02/23 12:14:54;;;;;;;51.75;23.33;;;;;;;13.16;62.25;101491.88;4988732;28;124126;-67
2023/02/23 12:17:26;;;;;;;48.75;22.75;;;;;;;13.20;62.27;101503.25;4986930;28;124621;-68
2023/02/23 12:20:04;;;;;;;45.78;22.60;;;;;;;13.24;62.14;101499.50;4988716;28;114227;-69
2023/02/23 12:22:36;;;;;;;50.25;23.02;;;;;;;13.27;62.17;101488.75;4960630;28;114090;-69
2023/02/23 12:25:19;;;;;;;45.97;23.35;;;;;;;13.29;62.08;101489.53;4987712;28;123964;-70
2023/02/23 12:28:03;;;;;;;44.63;21.40;;;;;;;13.31;61.94;101492.16;4985619;28;124268;-69
2023/02/23 12:31:00;;;;;;;44.97;22.73;;;;;;;13.31;61.83;101490.34;4987736;28;113172;-69
2023/02/23 12:33:37;;;;;;;43.97;20.35;;;;;;;13.31;61.91;101493.00;4989835;28;114043;-70
2023/02/23 12:36:37;;;;;;;39.42;19.17;;;;;;;13.31;61.73;101485.03;4983247;28;124146;-69
2023/02/23 12:39:23;;;;;;;39.08;19.15;;;;;;;13.30;61.54;101483.31;4980915;28;124532;-69
2023/02/23 12:41:56;;;;;;;36.15;17.88;;;;;;;13.30;61.48;101493.97;4975818;28;114485;-69
2023/02/23 12:44:52;;;;;;;37.30;18.25;;;;;;;13.28;61.31;101495.78;4970121;28;114113;-69
2023/02/23 12:47:33;;;;;;;;;;;;;;;13.25;61.63;101482.63;4981406;28;124760;-69